createdAt,value
2023-01-26T00:01:10.471Z,102032.47
2023-01-26T00:03:36.901Z,102037.28
2023-01-26T00:06:04.441Z,102039.00
2023-01-26T00:08:31.355Z,102048.13
2023-01-26T00:10:57.947Z,102028.09
2023-01-26T00:13:24.516Z,102027.69
2023-01-26T00:15:51.354Z,102026.25
2023-01-26T00:18:18.040Z,102029.59
2023-01-26T00:20:45.008Z,102022.69
2023-01-26T00:23:11.850Z,102027.84
2023-01-26T00:25:40.227Z,102019.28
2023-01-26T00:28:06.731Z,102023.00
2023-01-26T00:30:33.450Z,102014.75
2023-01-26T00:32:59.987Z,102008.94
2023-01-26T00:35:26.516Z,102008.63
2023-01-26T00:37:54.744Z,102002.03
2023-01-26T00:40:21.438Z,102001.84
2023-01-26T00:42:47.959Z,101995.09
2023-01-26T00:45:14.446Z,101990.88
2023-01-26T00:47:42.402Z,101989.72
2023-01-26T00:50:09.843Z,101990.44
2023-01-26T00:52:36.677Z,101991.94
2023-01-26T00:55:03.636Z,101989.78
2023-01-26T00:57:30.479Z,101978.84
2023-01-26T00:59:56.854Z,101973.63
2023-01-26T01:02:23.253Z,101978.22
2023-01-26T01:04:49.667Z,101973.72
2023-01-26T01:07:16.090Z,101975.22
2023-01-26T01:09:42.412Z,101975.13
2023-01-26T01:12:08.756Z,101966.78
2023-01-26T01:14:35.450Z,101976.09
2023-01-26T01:17:01.939Z,101973.94
2023-01-26T01:19:28.684Z,101975.47
2023-01-26T01:21:55.682Z,101970.09
2023-01-26T01:24:22.504Z,101966.34
2023-01-26T01:26:49.035Z,101962.31
2023-01-26T01:29:15.515Z,101973.56
2023-01-26T01:31:43.165Z,101970.84
2023-01-26T01:34:09.960Z,101970.34
2023-01-26T01:36:36.451Z,101970.44
2023-01-26T01:39:03.060Z,101964.00
2023-01-26T01:41:29.533Z,101964.25
2023-01-26T01:44:14.337Z,101964.84
2023-01-26T01:46:45.105Z,101957.34
2023-01-26T01:49:11.367Z,101958.34
2023-01-26T01:51:41.771Z,101951.94
2023-01-26T01:54:11.878Z,101949.84
2023-01-26T01:56:39.917Z,101949.41
2023-01-26T01:59:07.848Z,101958.22
2023-01-26T02:01:34.570Z,101954.28
2023-01-26T02:04:02.361Z,101956.63
2023-01-26T02:06:33.993Z,101954.06
2023-01-26T02:09:00.852Z,101954.50
2023-01-26T02:11:27.374Z,101946.75
2023-01-26T02:13:54.442Z,101951.97
2023-01-26T02:16:21.093Z,101956.09
2023-01-26T02:18:47.879Z,101955.34
2023-01-26T02:21:17.414Z,101958.19
2023-01-26T02:23:52.807Z,101954.91
2023-01-26T02:26:27.489Z,101950.47
2023-01-26T02:28:54.373Z,101943.44
2023-01-26T02:31:23.422Z,101939.25
2023-01-26T02:33:50.068Z,101939.47
2023-01-26T02:36:24.578Z,101936.63
2023-01-26T02:38:55.953Z,101935.47
2023-01-26T02:41:41.482Z,101925.69
2023-01-26T02:44:09.532Z,101928.41
2023-01-26T02:46:36.059Z,101918.75
2023-01-26T02:49:21.472Z,101921.97
2023-01-26T02:51:47.788Z,101926.50
2023-01-26T02:54:34.097Z,101920.59
2023-01-26T02:57:00.712Z,101920.44
2023-01-26T02:59:27.102Z,101913.44
2023-01-26T03:01:55.572Z,101912.50
2023-01-26T03:04:22.315Z,101909.06
2023-01-26T03:06:48.622Z,101914.72
2023-01-26T03:09:14.953Z,101910.75
2023-01-26T03:11:44.258Z,101913.38
2023-01-26T03:14:11.969Z,101912.06
2023-01-26T03:16:39.075Z,101917.38
2023-01-26T03:19:24.533Z,101912.25
2023-01-26T03:22:29.478Z,101903.13
2023-01-26T03:25:25.207Z,101909.66
2023-01-26T03:27:51.615Z,101899.25
2023-01-26T03:30:19.251Z,101897.75
2023-01-26T03:32:45.683Z,101889.81
2023-01-26T03:35:15.245Z,101891.50
2023-01-26T03:37:43.684Z,101893.50
2023-01-26T03:40:30.641Z,101894.66
2023-01-26T03:43:15.455Z,101895.63
2023-01-26T03:46:00.548Z,101892.06
2023-01-26T03:48:45.691Z,101893.47
2023-01-26T03:51:30.572Z,101882.28
2023-01-26T03:54:15.569Z,101880.94
2023-01-26T03:56:42.042Z,101870.78
2023-01-26T03:59:08.601Z,101871.03
2023-01-26T04:01:36.858Z,101867.13
2023-01-26T04:04:22.058Z,101878.34
2023-01-26T04:07:07.462Z,101880.50
2023-01-26T04:09:34.227Z,101875.22
2023-01-26T04:12:00.622Z,101881.81
2023-01-26T04:14:49.828Z,101881.66
2023-01-26T04:17:35.997Z,101890.31
2023-01-26T04:20:20.784Z,101886.19
2023-01-26T04:22:47.138Z,101884.94
2023-01-26T04:25:17.695Z,101892.78
2023-01-26T04:27:44.272Z,101894.72
2023-01-26T04:30:12.330Z,101884.28
2023-01-26T04:32:39.114Z,101879.97
2023-01-26T04:35:07.609Z,101882.84
2023-01-26T04:37:34.089Z,101878.22
2023-01-26T04:40:00.773Z,101882.16
2023-01-26T04:42:27.551Z,101882.91
2023-01-26T04:44:54.455Z,101880.03
2023-01-26T04:47:21.436Z,101873.31
2023-01-26T04:49:48.276Z,101865.84
2023-01-26T04:52:14.999Z,101859.13
2023-01-26T04:54:41.552Z,101862.97
2023-01-26T04:57:08.562Z,101861.06
2023-01-26T04:59:35.099Z,101863.03
2023-01-26T05:02:01.475Z,101857.59
2023-01-26T05:04:28.350Z,101849.34
2023-01-26T05:06:58.525Z,101854.06
2023-01-26T05:09:25.156Z,101861.56
2023-01-26T05:11:51.587Z,101861.47
2023-01-26T05:14:21.576Z,101855.25
2023-01-26T05:16:48.307Z,101858.31
2023-01-26T05:19:15.282Z,101858.63
2023-01-26T05:21:44.367Z,101851.00
2023-01-26T05:24:12.382Z,101853.41
2023-01-26T05:26:39.205Z,101846.03
2023-01-26T05:29:17.888Z,101853.44
2023-01-26T05:31:44.240Z,101858.31
2023-01-26T05:34:10.701Z,101845.47
2023-01-26T05:36:51.349Z,101846.50
2023-01-26T05:39:17.711Z,101838.91
2023-01-26T05:41:48.636Z,101846.59
2023-01-26T05:44:14.929Z,101849.50
2023-01-26T05:46:42.633Z,101851.19
2023-01-26T05:49:09.025Z,101846.91
2023-01-26T05:51:35.364Z,101847.81
2023-01-26T05:54:01.677Z,101854.91
2023-01-26T05:56:28.220Z,101849.06
2023-01-26T05:58:54.528Z,101855.38
2023-01-26T06:01:20.983Z,101865.16
2023-01-26T06:03:47.374Z,101861.84
2023-01-26T06:06:13.673Z,101862.91
2023-01-26T06:08:39.987Z,101859.22
2023-01-26T06:11:06.379Z,101856.81
2023-01-26T06:13:32.685Z,101856.22
2023-01-26T06:16:02.502Z,101864.69
2023-01-26T06:18:28.810Z,101863.34
2023-01-26T06:20:58.316Z,101860.63
2023-01-26T06:23:24.635Z,101857.47
2023-01-26T06:25:52.091Z,101860.09
2023-01-26T06:28:20.090Z,101862.63
2023-01-26T06:30:46.554Z,101866.72
2023-01-26T06:33:13.022Z,101865.66
2023-01-26T06:35:39.334Z,101867.41
2023-01-26T06:38:05.754Z,101862.84
2023-01-26T06:40:32.152Z,101872.03
2023-01-26T06:42:58.484Z,101875.09
2023-01-26T06:45:24.825Z,101874.94
2023-01-26T06:47:51.379Z,101874.16
2023-01-26T06:50:23.074Z,101879.78
2023-01-26T06:52:55.767Z,101875.00
2023-01-26T06:55:23.858Z,101874.53
2023-01-26T06:57:50.154Z,101874.28
2023-01-26T07:00:16.858Z,101875.00
2023-01-26T07:02:43.246Z,101871.66
2023-01-26T07:05:11.131Z,101872.91
2023-01-26T07:07:38.322Z,101880.72
2023-01-26T07:10:06.747Z,101891.59
2023-01-26T07:12:44.511Z,101886.44
2023-01-26T07:15:11.714Z,101887.66
2023-01-26T07:17:38.974Z,101882.53
2023-01-26T07:20:06.105Z,101880.34
2023-01-26T07:22:32.444Z,101887.50
2023-01-26T07:24:58.768Z,101882.78
2023-01-26T07:27:25.075Z,101888.28
2023-01-26T07:29:51.559Z,101875.00
2023-01-26T07:32:17.927Z,101870.41
2023-01-26T07:34:44.235Z,101877.59
2023-01-26T07:37:10.570Z,101877.84
2023-01-26T07:39:36.898Z,101882.66
2023-01-26T07:42:03.270Z,101881.25
2023-01-26T07:44:29.585Z,101884.53
2023-01-26T07:46:56.037Z,101886.22
2023-01-26T07:49:22.415Z,101890.41
2023-01-26T07:51:48.775Z,101891.22
2023-01-26T07:54:15.095Z,101882.00
2023-01-26T07:56:41.483Z,101881.03
2023-01-26T07:59:10.297Z,101878.91
2023-01-26T08:01:36.622Z,101878.66
2023-01-26T08:04:03.250Z,101876.56
2023-01-26T08:06:29.565Z,101886.16
2023-01-26T08:08:56.035Z,101882.47
2023-01-26T08:11:24.264Z,101889.38
2023-01-26T08:13:50.665Z,101891.47
2023-01-26T08:16:17.072Z,101891.22
2023-01-26T08:18:44.426Z,101889.50
2023-01-26T08:21:12.020Z,101896.09
2023-01-26T08:23:38.492Z,101902.91
2023-01-26T08:26:06.141Z,101913.16
2023-01-26T08:28:33.037Z,101908.06
2023-01-26T08:31:07.210Z,101902.25
2023-01-26T08:33:33.997Z,101910.94
2023-01-26T08:36:04.597Z,101916.09
2023-01-26T08:38:35.203Z,101912.22
2023-01-26T08:41:02.300Z,101913.44
2023-01-26T08:43:28.924Z,101916.78
2023-01-26T08:45:55.348Z,101919.22
2023-01-26T08:48:21.988Z,101912.97
2023-01-26T08:50:48.356Z,101912.97
2023-01-26T08:53:14.719Z,101921.69
2023-01-26T08:55:41.106Z,101915.06
2023-01-26T08:58:07.467Z,101914.94
2023-01-26T09:00:34.167Z,101913.03
2023-01-26T09:03:04.849Z,101910.47
2023-01-26T09:05:32.394Z,101908.94
2023-01-26T09:07:58.790Z,101899.75
2023-01-26T09:10:25.527Z,101901.31
2023-01-26T09:12:51.861Z,101901.53
2023-01-26T09:15:18.302Z,101892.16
2023-01-26T09:17:44.700Z,101893.97
2023-01-26T09:20:11.858Z,101904.00
2023-01-26T09:22:38.387Z,101901.44
2023-01-26T09:25:04.942Z,101899.72
2023-01-26T09:27:31.332Z,101900.34
2023-01-26T09:29:57.771Z,101902.25
2023-01-26T09:32:24.135Z,101893.97
2023-01-26T09:34:50.458Z,101902.19
2023-01-26T09:37:17.472Z,101894.97
2023-01-26T09:39:43.920Z,101894.38
2023-01-26T09:42:11.128Z,101888.16
2023-01-26T09:44:47.947Z,101885.75
2023-01-26T09:47:20.112Z,101884.09
2023-01-26T09:49:56.765Z,101896.69
2023-01-26T09:52:28.224Z,101895.44
2023-01-26T09:54:59.502Z,101878.78
2023-01-26T09:57:52.224Z,101878.97
2023-01-26T10:00:25.151Z,101879.25
2023-01-26T10:03:11.071Z,101891.19
2023-01-26T10:05:37.355Z,101892.16
2023-01-26T10:08:05.250Z,101879.69
2023-01-26T10:10:34.821Z,101890.00
2023-01-26T10:13:02.008Z,101878.31
2023-01-26T10:15:31.238Z,101880.94
2023-01-26T10:18:02.534Z,101880.59
2023-01-26T10:20:31.861Z,101887.09
2023-01-26T10:23:01.100Z,101886.50
2023-01-26T10:25:27.515Z,101877.09
2023-01-26T10:27:54.504Z,101893.63
2023-01-26T10:30:21.529Z,101875.41
2023-01-26T10:32:50.917Z,101871.53
2023-01-26T10:35:19.819Z,101874.91
2023-01-26T10:37:46.946Z,101876.56
2023-01-26T10:40:13.939Z,101864.25
2023-01-26T10:42:41.047Z,101865.03
2023-01-26T10:45:22.657Z,101868.09
2023-01-26T10:48:07.859Z,101861.19
2023-01-26T10:50:34.328Z,101859.84
2023-01-26T10:53:02.026Z,101853.94
2023-01-26T10:55:29.348Z,101865.69
2023-01-26T10:57:56.132Z,101866.22
2023-01-26T11:00:22.738Z,101864.56
2023-01-26T11:02:50.751Z,101865.22
2023-01-26T11:05:24.501Z,101871.09
2023-01-26T11:07:54.205Z,101864.97
2023-01-26T11:10:20.935Z,101881.91
2023-01-26T11:12:48.114Z,101875.13
2023-01-26T11:15:19.559Z,101861.88
2023-01-26T11:17:50.445Z,101864.06
2023-01-26T11:20:26.711Z,101860.41
2023-01-26T11:23:03.082Z,101862.56
2023-01-26T11:25:35.335Z,101865.91
2023-01-26T11:28:20.342Z,101863.00
2023-01-26T11:31:08.021Z,101856.53
2023-01-26T11:33:34.331Z,101850.81
2023-01-26T11:36:06.459Z,101854.38
2023-01-26T11:38:38.430Z,101850.91
2023-01-26T11:41:04.950Z,101852.75
2023-01-26T11:43:54.749Z,101844.34
2023-01-26T11:46:40.045Z,101839.06
2023-01-26T11:49:06.334Z,101842.22
2023-01-26T11:51:32.844Z,101846.00
2023-01-26T11:54:09.021Z,101840.50
2023-01-26T11:56:38.574Z,101844.00
2023-01-26T11:59:17.042Z,101839.69
2023-01-26T12:01:51.902Z,101834.34
2023-01-26T12:04:19.899Z,101827.47
2023-01-26T12:06:48.428Z,101838.97
2023-01-26T12:09:21.433Z,101821.94
2023-01-26T12:12:05.683Z,101825.19
2023-01-26T12:14:50.068Z,101825.91
2023-01-26T12:17:19.647Z,101813.94
2023-01-26T12:20:04.561Z,101807.09
2023-01-26T12:22:34.348Z,101810.44
2023-01-26T12:25:20.474Z,101817.22
2023-01-26T12:28:07.298Z,101807.56
2023-01-26T12:30:33.764Z,101808.53
2023-01-26T12:33:00.492Z,101804.19
2023-01-26T12:35:45.379Z,101788.66
2023-01-26T12:38:17.961Z,101787.34
2023-01-26T12:40:54.767Z,101789.63
2023-01-26T12:43:27.665Z,101782.25
2023-01-26T12:45:56.051Z,101786.72
2023-01-26T12:48:27.873Z,101780.75
2023-01-26T12:51:02.128Z,101782.69
2023-01-26T12:53:32.185Z,101783.50
2023-01-26T12:56:01.592Z,101782.06
2023-01-26T12:58:31.653Z,101788.06
2023-01-26T13:01:01.218Z,101782.34
2023-01-26T13:03:39.517Z,101795.03
2023-01-26T13:06:09.086Z,101797.78
2023-01-26T13:08:35.530Z,101791.97
2023-01-26T13:11:08.931Z,101789.97
2023-01-26T13:13:36.263Z,101783.47
2023-01-26T13:16:15.118Z,101784.34
2023-01-26T13:18:55.619Z,101788.09
2023-01-26T13:21:42.753Z,101775.13
2023-01-26T13:24:18.307Z,101783.88
2023-01-26T13:26:46.090Z,101787.34
2023-01-26T13:29:32.709Z,101783.19
2023-01-26T13:32:00.740Z,101782.16
2023-01-26T13:34:29.393Z,101788.31
2023-01-26T13:36:59.945Z,101776.00
2023-01-26T13:39:29.129Z,101786.94
2023-01-26T13:41:55.438Z,101786.53
2023-01-26T13:44:25.867Z,101784.91
2023-01-26T13:46:57.167Z,101783.91
2023-01-26T13:49:27.857Z,101780.22
2023-01-26T13:51:54.387Z,101797.47
2023-01-26T13:54:21.597Z,101807.16
2023-01-26T13:57:01.538Z,101806.91
2023-01-26T13:59:27.888Z,101810.22
2023-01-26T14:01:55.525Z,101818.41
2023-01-26T14:04:23.119Z,101822.41
2023-01-26T14:07:06.919Z,101822.59
2023-01-26T14:09:35.049Z,101819.06
2023-01-26T14:12:03.387Z,101811.38
2023-01-26T14:14:33.023Z,101817.69
2023-01-26T14:16:59.855Z,101825.38
2023-01-26T14:19:26.827Z,101830.38
2023-01-26T14:21:54.697Z,101836.53
2023-01-26T14:24:32.304Z,101832.66
2023-01-26T14:26:58.691Z,101835.28
2023-01-26T14:29:28.741Z,101830.97
2023-01-26T14:31:57.805Z,101842.78
2023-01-26T14:34:27.909Z,101847.09
2023-01-26T14:37:13.835Z,101855.47
2023-01-26T14:39:43.053Z,101844.69
2023-01-26T14:42:14.453Z,101843.81
2023-01-26T14:44:41.013Z,101855.69
2023-01-26T14:47:27.997Z,101855.75
2023-01-26T14:49:58.878Z,101852.59
2023-01-26T14:52:27.124Z,101853.09
2023-01-26T14:54:54.776Z,101868.63
2023-01-26T14:57:23.775Z,101862.81
2023-01-26T14:59:51.652Z,101860.06
2023-01-26T15:02:18.297Z,101870.38
2023-01-26T15:04:48.170Z,101854.53
2023-01-26T15:07:21.873Z,101858.47
2023-01-26T15:09:52.022Z,101853.06
2023-01-26T15:12:19.811Z,101854.09
2023-01-26T15:14:46.730Z,101862.34
2023-01-26T15:17:32.088Z,101851.78
2023-01-26T15:19:58.623Z,101852.59
2023-01-26T15:22:26.304Z,101861.03
2023-01-26T15:25:04.769Z,101857.38
2023-01-26T15:27:35.381Z,101859.13
2023-01-26T15:30:08.582Z,101850.00
2023-01-26T15:32:40.455Z,101847.31
2023-01-26T15:35:31.043Z,101834.63
2023-01-26T15:38:10.825Z,101834.34
2023-01-26T15:40:37.684Z,101832.25
2023-01-26T15:43:16.543Z,101838.81
2023-01-26T15:45:50.901Z,101844.38
2023-01-26T15:48:17.956Z,101838.84
2023-01-26T15:50:47.811Z,101840.84
2023-01-26T15:53:15.258Z,101835.59
2023-01-26T15:55:42.266Z,101834.66
2023-01-26T15:58:09.219Z,101830.00
2023-01-26T16:00:37.235Z,101839.22
2023-01-26T16:03:12.705Z,101833.25
2023-01-26T16:05:39.204Z,101840.19
2023-01-26T16:08:05.938Z,101836.69
2023-01-26T16:10:32.613Z,101841.00
2023-01-26T16:13:00.468Z,101842.03
2023-01-26T16:15:43.686Z,101850.97
2023-01-26T16:18:12.760Z,101852.25
2023-01-26T16:20:40.359Z,101853.47
2023-01-26T16:23:15.456Z,101847.69
2023-01-26T16:25:42.697Z,101852.00
2023-01-26T16:28:09.755Z,101855.56
2023-01-26T16:30:37.050Z,101860.88
2023-01-26T16:33:03.950Z,101858.16
2023-01-26T16:35:31.061Z,101868.16
2023-01-26T16:37:59.173Z,101862.38
2023-01-26T16:40:25.941Z,101875.09
2023-01-26T16:42:56.773Z,101869.66
2023-01-26T16:45:26.974Z,101876.09
2023-01-26T16:47:56.515Z,101889.75
2023-01-26T16:50:24.027Z,101882.56
2023-01-26T16:52:50.973Z,101886.09
2023-01-26T16:55:17.998Z,101888.91
2023-01-26T16:57:45.234Z,101895.47
2023-01-26T17:00:16.679Z,101900.41
2023-01-26T17:02:44.590Z,101907.63
2023-01-26T17:05:15.368Z,101911.63
2023-01-26T17:07:42.143Z,101910.03
2023-01-26T17:10:09.904Z,101912.66
2023-01-26T17:12:36.693Z,101913.94
2023-01-26T17:15:07.023Z,101914.88
2023-01-26T17:17:35.718Z,101916.63
2023-01-26T17:20:18.060Z,101909.56
2023-01-26T17:22:45.966Z,101911.53
2023-01-26T17:25:15.310Z,101907.44
2023-01-26T17:27:44.082Z,101901.44
2023-01-26T17:30:13.024Z,101897.91
2023-01-26T17:32:39.395Z,101905.06
2023-01-26T17:35:07.277Z,101895.66
2023-01-26T17:37:33.797Z,101896.84
2023-01-26T17:40:13.922Z,101899.09
2023-01-26T17:42:40.332Z,101901.75
2023-01-26T17:45:07.944Z,101900.97
2023-01-26T17:47:40.448Z,101907.00
2023-01-26T17:50:07.195Z,101906.69
2023-01-26T17:52:35.421Z,101906.91
2023-01-26T17:55:05.216Z,101912.22
2023-01-26T17:57:32.408Z,101910.97
2023-01-26T17:59:58.966Z,101912.63
2023-01-26T18:02:25.584Z,101903.44
2023-01-26T18:04:52.101Z,101906.94
2023-01-26T18:07:18.564Z,101913.09
2023-01-26T18:09:45.054Z,101908.00
2023-01-26T18:12:11.374Z,101902.47
2023-01-26T18:14:37.884Z,101910.00
2023-01-26T18:17:04.321Z,101910.03
2023-01-26T18:19:30.825Z,101919.38
2023-01-26T18:21:57.233Z,101915.81
2023-01-26T18:24:23.671Z,101928.16
2023-01-26T18:26:50.521Z,101923.63
2023-01-26T18:29:17.092Z,101931.34
2023-01-26T18:31:43.688Z,101931.31
2023-01-26T18:34:10.512Z,101941.63
2023-01-26T18:36:37.027Z,101936.97
2023-01-26T18:39:05.155Z,101933.97
2023-01-26T18:41:32.867Z,101936.16
2023-01-26T18:44:00.153Z,101956.09
2023-01-26T18:46:27.386Z,101957.72
2023-01-26T18:48:54.570Z,101945.28
2023-01-26T18:51:22.896Z,101953.44
2023-01-26T18:53:49.607Z,101958.13
2023-01-26T18:56:17.462Z,101957.31
2023-01-26T18:58:44.325Z,101956.06
2023-01-26T19:01:12.568Z,101949.38
2023-01-26T19:03:42.456Z,101949.41
2023-01-26T19:06:09.409Z,101958.66
2023-01-26T19:08:36.754Z,101963.84
2023-01-26T19:11:04.697Z,101969.25
2023-01-26T19:13:32.231Z,101976.22
2023-01-26T19:15:59.359Z,101983.16
2023-01-26T19:18:25.903Z,101971.78
2023-01-26T19:21:00.122Z,101984.97
2023-01-26T19:23:27.996Z,101983.25
2023-01-26T19:25:54.782Z,101984.97
2023-01-26T19:28:21.709Z,101986.09
2023-01-26T19:30:48.704Z,101986.94
2023-01-26T19:33:24.386Z,101985.56
2023-01-26T19:35:51.663Z,101988.03
2023-01-26T19:38:20.397Z,101987.47
2023-01-26T19:40:48.328Z,101990.19
2023-01-26T19:43:15.955Z,101995.63
2023-01-26T19:45:47.808Z,101994.78
2023-01-26T19:48:14.894Z,101999.16
2023-01-26T19:50:41.827Z,101984.97
2023-01-26T19:53:11.509Z,101987.69
2023-01-26T19:55:37.974Z,101982.13
2023-01-26T19:58:04.906Z,101988.41
2023-01-26T20:00:31.635Z,101994.94
2023-01-26T20:02:58.416Z,101987.25
2023-01-26T20:05:25.420Z,101993.28
2023-01-26T20:07:54.842Z,102002.56
2023-01-26T20:10:21.604Z,101992.31
2023-01-26T20:12:48.126Z,102000.69
2023-01-26T20:15:14.988Z,101997.47
2023-01-26T20:17:43.016Z,102007.97
2023-01-26T20:20:12.174Z,102010.63
2023-01-26T20:22:39.601Z,102008.66
2023-01-26T20:25:08.085Z,102010.22
2023-01-26T20:27:35.059Z,102017.13
2023-01-26T20:30:02.011Z,102018.44
2023-01-26T20:32:28.672Z,102014.56
2023-01-26T20:34:55.499Z,102013.88
2023-01-26T20:37:21.996Z,102014.53
2023-01-26T20:39:49.534Z,102021.09
2023-01-26T20:42:18.595Z,102020.88
2023-01-26T20:44:45.120Z,102018.75
2023-01-26T20:47:11.964Z,102013.19
2023-01-26T20:49:38.513Z,102017.59
2023-01-26T20:52:07.631Z,102017.09
2023-01-26T20:54:36.095Z,102008.31
2023-01-26T20:57:03.620Z,102007.53
2023-01-26T20:59:31.028Z,102001.34
2023-01-26T21:01:57.840Z,102006.44
2023-01-26T21:04:25.044Z,102003.41
2023-01-26T21:06:52.360Z,102010.78
2023-01-26T21:09:19.159Z,102005.84
2023-01-26T21:11:45.992Z,102002.97
2023-01-26T21:14:13.713Z,102005.22
2023-01-26T21:16:42.158Z,102005.97
2023-01-26T21:19:09.626Z,102007.25
2023-01-26T21:21:36.279Z,102010.00
2023-01-26T21:24:03.001Z,102002.56
2023-01-26T21:26:30.124Z,102007.19
2023-01-26T21:28:59.198Z,102016.00
2023-01-26T21:31:27.300Z,102014.81
2023-01-26T21:33:54.380Z,102005.16
2023-01-26T21:36:22.627Z,102014.84
2023-01-26T21:38:50.933Z,102006.03
2023-01-26T21:41:40.793Z,102014.59
2023-01-26T21:44:20.807Z,102024.16
2023-01-26T21:46:48.100Z,102015.34
2023-01-26T21:49:15.027Z,102022.19
2023-01-26T21:52:00.446Z,102021.50
2023-01-26T21:54:28.106Z,102021.41
2023-01-26T21:56:57.975Z,102022.88
2023-01-26T21:59:24.837Z,102019.34
2023-01-26T22:01:52.485Z,102023.41
2023-01-26T22:04:23.670Z,102026.28
2023-01-26T22:06:50.595Z,102027.91
2023-01-26T22:09:17.976Z,102028.38
2023-01-26T22:11:45.034Z,102029.09
2023-01-26T22:14:14.016Z,102032.38
2023-01-26T22:16:41.103Z,102035.72
2023-01-26T22:19:09.060Z,102032.09
2023-01-26T22:21:35.991Z,102026.31
2023-01-26T22:24:02.939Z,102026.56
2023-01-26T22:26:29.678Z,102024.69
2023-01-26T22:28:58.182Z,102032.31
2023-01-26T22:31:27.321Z,102029.75
2023-01-26T22:33:54.925Z,102033.53
2023-01-26T22:36:22.523Z,102029.94
2023-01-26T22:38:49.481Z,102024.69
2023-01-26T22:41:19.776Z,102028.25
2023-01-26T22:43:48.242Z,102037.69
2023-01-26T22:46:16.065Z,102034.53
2023-01-26T22:48:43.040Z,102029.00
2023-01-26T22:51:13.607Z,102040.53
2023-01-26T22:53:40.683Z,102035.41
2023-01-26T22:56:07.789Z,102040.06
2023-01-26T22:58:39.649Z,102042.19
2023-01-26T23:01:12.366Z,102045.94
2023-01-26T23:03:42.072Z,102043.81
2023-01-26T23:06:11.018Z,102038.31
2023-01-26T23:08:37.559Z,102042.41
2023-01-26T23:11:09.440Z,102045.56
2023-01-26T23:13:36.122Z,102054.50
2023-01-26T23:16:03.106Z,102049.59
2023-01-26T23:18:29.913Z,102051.50
2023-01-26T23:21:01.539Z,102052.03
2023-01-26T23:23:29.793Z,102045.97
2023-01-26T23:25:57.737Z,102044.16
2023-01-26T23:28:25.413Z,102049.50
2023-01-26T23:30:52.647Z,102049.97
2023-01-26T23:33:20.329Z,102056.16
2023-01-26T23:35:47.704Z,102047.06
2023-01-26T23:38:15.005Z,102048.63
2023-01-26T23:40:42.959Z,102055.09
2023-01-26T23:43:16.722Z,102051.41
2023-01-26T23:45:44.593Z,102056.47
2023-01-26T23:48:11.531Z,102057.53
2023-01-26T23:50:38.166Z,102054.19
2023-01-26T23:53:05.032Z,102061.03
2023-01-26T23:55:33.211Z,102055.53
2023-01-26T23:58:01.043Z,102055.91
